sensor_id;sensor_type;location;lat;lon;timestamp;P1;durP1;ratioP1;P2;durP2;ratioP2
84482;SDS011;74703;51.284;22.590;2024-02-26T00:03:51;11.13;;;6.93;;
84482;SDS011;74703;51.284;22.590;2024-02-26T00:08:53;11.25;;;8.65;;
84482;SDS011;74703;51.284;22.590;2024-02-26T00:13:54;10.90;;;7.53;;
84482;SDS011;74703;51.284;22.590;2024-02-26T00:18:55;11.30;;;8.20;;
84482;SDS011;74703;51.284;22.590;2024-02-26T00:23:55;13.45;;;8.02;;
84482;SDS011;74703;51.284;22.590;2024-02-26T00:28:56;11.02;;;8.15;;
84482;SDS011;74703;51.284;22.590;2024-02-26T00:33:56;11.23;;;7.35;;
84482;SDS011;74703;51.284;22.590;2024-02-26T00:38:57;12.77;;;8.55;;
84482;SDS011;74703;51.284;22.590;2024-02-26T00:43:57;13.00;;;8.40;;
84482;SDS011;74703;51.284;22.590;2024-02-26T00:48:58;11.85;;;8.40;;
84482;SDS011;74703;51.284;22.590;2024-02-26T00:54:00;11.30;;;8.52;;
84482;SDS011;74703;51.284;22.590;2024-02-26T00:59:01;10.77;;;8.48;;
84482;SDS011;74703;51.284;22.590;2024-02-26T01:04:02;12.55;;;10.25;;
84482;SDS011;74703;51.284;22.590;2024-02-26T01:09:03;11.63;;;8.63;;
84482;SDS011;74703;51.284;22.590;2024-02-26T01:14:04;10.25;;;8.50;;
84482;SDS011;74703;51.284;22.590;2024-02-26T01:19:06;12.65;;;8.57;;
84482;SDS011;74703;51.284;22.590;2024-02-26T01:24:07;10.25;;;8.15;;
84482;SDS011;74703;51.284;22.590;2024-02-26T01:29:07;12.23;;;9.05;;
84482;SDS011;74703;51.284;22.590;2024-02-26T01:34:08;11.55;;;7.57;;
84482;SDS011;74703;51.284;22.590;2024-02-26T01:39:08;10.77;;;8.27;;
84482;SDS011;74703;51.284;22.590;2024-02-26T01:44:12;15.10;;;8.25;;
84482;SDS011;74703;51.284;22.590;2024-02-26T01:49:16;10.63;;;8.77;;
84482;SDS011;74703;51.284;22.590;2024-02-26T01:54:16;11.77;;;8.43;;
84482;SDS011;74703;51.284;22.590;2024-02-26T01:59:18;13.10;;;9.07;;
84482;SDS011;74703;51.284;22.590;2024-02-26T02:04:22;11.00;;;7.85;;
84482;SDS011;74703;51.284;22.590;2024-02-26T02:09:24;9.80;;;8.25;;
84482;SDS011;74703;51.284;22.590;2024-02-26T02:14:26;12.30;;;8.50;;
84482;SDS011;74703;51.284;22.590;2024-02-26T02:19:26;13.77;;;8.02;;
84482;SDS011;74703;51.284;22.590;2024-02-26T02:24:27;15.73;;;8.70;;
84482;SDS011;74703;51.284;22.590;2024-02-26T02:29:28;9.93;;;7.40;;
84482;SDS011;74703;51.284;22.590;2024-02-26T02:34:28;13.52;;;8.55;;
84482;SDS011;74703;51.284;22.590;2024-02-26T02:39:29;12.88;;;7.93;;
84482;SDS011;74703;51.284;22.590;2024-02-26T02:44:30;11.95;;;8.60;;
84482;SDS011;74703;51.284;22.590;2024-02-26T02:49:32;12.73;;;9.00;;
84482;SDS011;74703;51.284;22.590;2024-02-26T02:54:33;11.68;;;8.98;;
84482;SDS011;74703;51.284;22.590;2024-02-26T02:59:33;13.38;;;8.70;;
84482;SDS011;74703;51.284;22.590;2024-02-26T03:04:35;12.93;;;9.45;;
84482;SDS011;74703;51.284;22.590;2024-02-26T03:09:36;12.98;;;9.05;;
84482;SDS011;74703;51.284;22.590;2024-02-26T03:14:36;10.10;;;8.60;;
84482;SDS011;74703;51.284;22.590;2024-02-26T03:19:37;13.30;;;11.00;;
84482;SDS011;74703;51.284;22.590;2024-02-26T03:24:38;12.95;;;8.57;;
84482;SDS011;74703;51.284;22.590;2024-02-26T03:29:39;11.73;;;8.32;;
84482;SDS011;74703;51.284;22.590;2024-02-26T03:34:40;11.52;;;8.60;;
84482;SDS011;74703;51.284;22.590;2024-02-26T03:39:40;14.77;;;10.07;;
84482;SDS011;74703;51.284;22.590;2024-02-26T03:44:41;11.25;;;8.60;;
84482;SDS011;74703;51.284;22.590;2024-02-26T03:49:42;14.23;;;9.40;;
84482;SDS011;74703;51.284;22.590;2024-02-26T03:54:42;17.15;;;10.02;;
84482;SDS011;74703;51.284;22.590;2024-02-26T03:59:43;15.73;;;11.18;;
84482;SDS011;74703;51.284;22.590;2024-02-26T04:04:43;12.43;;;10.45;;
84482;SDS011;74703;51.284;22.590;2024-02-26T04:09:44;13.35;;;10.82;;
84482;SDS011;74703;51.284;22.590;2024-02-26T04:14:44;14.13;;;11.55;;
84482;SDS011;74703;51.284;22.590;2024-02-26T04:19:45;15.23;;;10.77;;
84482;SDS011;74703;51.284;22.590;2024-02-26T04:24:45;15.45;;;12.00;;
84482;SDS011;74703;51.284;22.590;2024-02-26T04:29:46;18.48;;;11.73;;
84482;SDS011;74703;51.284;22.590;2024-02-26T04:34:48;13.60;;;11.18;;
84482;SDS011;74703;51.284;22.590;2024-02-26T04:39:49;27.55;;;12.13;;
84482;SDS011;74703;51.284;22.590;2024-02-26T04:44:49;14.32;;;10.35;;
84482;SDS011;74703;51.284;22.590;2024-02-26T04:49:50;14.23;;;10.75;;
84482;SDS011;74703;51.284;22.590;2024-02-26T04:54:51;13.23;;;10.52;;
84482;SDS011;74703;51.284;22.590;2024-02-26T04:59:51;15.13;;;11.48;;
84482;SDS011;74703;51.284;22.590;2024-02-26T05:04:52;13.38;;;10.88;;
84482;SDS011;74703;51.284;22.590;2024-02-26T05:09:52;11.48;;;10.27;;
84482;SDS011;74703;51.284;22.590;2024-02-26T05:14:53;14.20;;;11.02;;
84482;SDS011;74703;51.284;22.590;2024-02-26T05:19:53;12.48;;;10.57;;
84482;SDS011;74703;51.284;22.590;2024-02-26T05:24:55;14.75;;;11.90;;
84482;SDS011;74703;51.284;22.590;2024-02-26T05:29:56;14.43;;;10.75;;
84482;SDS011;74703;51.284;22.590;2024-02-26T05:34:57;13.32;;;10.35;;
84482;SDS011;74703;51.284;22.590;2024-02-26T05:39:57;18.65;;;12.43;;
84482;SDS011;74703;51.284;22.590;2024-02-26T05:44:59;16.23;;;11.70;;
84482;SDS011;74703;51.284;22.590;2024-02-26T05:49:59;17.10;;;13.05;;
84482;SDS011;74703;51.284;22.590;2024-02-26T05:55:00;18.35;;;13.25;;
84482;SDS011;74703;51.284;22.590;2024-02-26T06:00:01;19.38;;;14.70;;
84482;SDS011;74703;51.284;22.590;2024-02-26T06:05:05;21.30;;;15.10;;
84482;SDS011;74703;51.284;22.590;2024-02-26T06:10:07;20.92;;;14.88;;
84482;SDS011;74703;51.284;22.590;2024-02-26T06:15:09;20.15;;;15.10;;
84482;SDS011;74703;51.284;22.590;2024-02-26T06:20:10;20.75;;;14.77;;
84482;SDS011;74703;51.284;22.590;2024-02-26T06:25:12;21.50;;;15.20;;
84482;SDS011;74703;51.284;22.590;2024-02-26T06:30:13;23.80;;;16.60;;
84482;SDS011;74703;51.284;22.590;2024-02-26T06:35:14;24.52;;;17.45;;
84482;SDS011;74703;51.284;22.590;2024-02-26T06:40:14;23.25;;;16.85;;
84482;SDS011;74703;51.284;22.590;2024-02-26T06:45:15;26.88;;;18.20;;
84482;SDS011;74703;51.284;22.590;2024-02-26T06:50:16;26.58;;;18.92;;
84482;SDS011;74703;51.284;22.590;2024-02-26T06:55:16;29.73;;;19.20;;
84482;SDS011;74703;51.284;22.590;2024-02-26T07:00:18;26.13;;;17.35;;
84482;SDS011;74703;51.284;22.590;2024-02-26T07:05:19;27.40;;;19.48;;
84482;SDS011;74703;51.284;22.590;2024-02-26T07:10:20;28.95;;;20.45;;
84482;SDS011;74703;51.284;22.590;2024-02-26T07:15:21;28.70;;;19.85;;
84482;SDS011;74703;51.284;22.590;2024-02-26T07:20:22;28.20;;;19.05;;
84482;SDS011;74703;51.284;22.590;2024-02-26T07:25:22;27.98;;;19.95;;
84482;SDS011;74703;51.284;22.590;2024-02-26T07:30:24;33.72;;;23.58;;
84482;SDS011;74703;51.284;22.590;2024-02-26T07:35:24;46.10;;;31.92;;
84482;SDS011;74703;51.284;22.590;2024-02-26T07:40:25;39.17;;;30.55;;
84482;SDS011;74703;51.284;22.590;2024-02-26T07:45:26;52.03;;;38.38;;
84482;SDS011;74703;51.284;22.590;2024-02-26T07:50:28;39.20;;;26.85;;
84482;SDS011;74703;51.284;22.590;2024-02-26T07:55:29;32.60;;;22.60;;
84482;SDS011;74703;51.284;22.590;2024-02-26T08:00:29;25.92;;;18.77;;
84482;SDS011;74703;51.284;22.590;2024-02-26T08:05:30;39.00;;;27.60;;
84482;SDS011;74703;51.284;22.590;2024-02-26T08:10:30;31.88;;;24.00;;
84482;SDS011;74703;51.284;22.590;2024-02-26T08:15:31;21.33;;;14.75;;
84482;SDS011;74703;51.284;22.590;2024-02-26T08:20:34;23.08;;;16.83;;
84482;SDS011;74703;51.284;22.590;2024-02-26T08:25:34;21.67;;;16.13;;
84482;SDS011;74703;51.284;22.590;2024-02-26T08:30:35;25.83;;;17.13;;
84482;SDS011;74703;51.284;22.590;2024-02-26T08:35:36;29.60;;;18.70;;
84482;SDS011;74703;51.284;22.590;2024-02-26T08:40:36;24.02;;;17.42;;
84482;SDS011;74703;51.284;22.590;2024-02-26T08:45:37;26.55;;;18.10;;
84482;SDS011;74703;51.284;22.590;2024-02-26T08:50:38;31.20;;;19.15;;
84482;SDS011;74703;51.284;22.590;2024-02-26T08:55:38;27.70;;;19.33;;
84482;SDS011;74703;51.284;22.590;2024-02-26T09:00:39;33.30;;;22.58;;
84482;SDS011;74703;51.284;22.590;2024-02-26T09:05:39;27.92;;;20.27;;
84482;SDS011;74703;51.284;22.590;2024-02-26T09:10:40;26.52;;;17.10;;
84482;SDS011;74703;51.284;22.590;2024-02-26T09:15:40;21.80;;;15.80;;
84482;SDS011;74703;51.284;22.590;2024-02-26T09:20:41;21.17;;;15.85;;
84482;SDS011;74703;51.284;22.590;2024-02-26T09:25:42;26.45;;;18.52;;
84482;SDS011;74703;51.284;22.590;2024-02-26T09:30:45;24.55;;;17.33;;
84482;SDS011;74703;51.284;22.590;2024-02-26T09:35:46;22.80;;;14.93;;
84482;SDS011;74703;51.284;22.590;2024-02-26T09:40:46;24.65;;;16.27;;
84482;SDS011;74703;51.284;22.590;2024-02-26T09:45:47;35.95;;;19.67;;
84482;SDS011;74703;51.284;22.590;2024-02-26T09:50:50;27.60;;;17.55;;
84482;SDS011;74703;51.284;22.590;2024-02-26T09:55:51;23.83;;;17.73;;
84482;SDS011;74703;51.284;22.590;2024-02-26T10:00:53;29.33;;;17.65;;
84482;SDS011;74703;51.284;22.590;2024-02-26T10:06:01;23.13;;;16.55;;
84482;SDS011;74703;51.284;22.590;2024-02-26T10:11:05;23.98;;;16.83;;
84482;SDS011;74703;51.284;22.590;2024-02-26T10:16:07;20.20;;;13.15;;
84482;SDS011;74703;51.284;22.590;2024-02-26T10:21:08;19.80;;;14.05;;
84482;SDS011;74703;51.284;22.590;2024-02-26T10:26:09;21.15;;;14.90;;
84482;SDS011;74703;51.284;22.590;2024-02-26T10:31:13;25.88;;;14.65;;
84482;SDS011;74703;51.284;22.590;2024-02-26T10:36:14;23.40;;;14.38;;
84482;SDS011;74703;51.284;22.590;2024-02-26T10:41:15;23.92;;;15.07;;
84482;SDS011;74703;51.284;22.590;2024-02-26T10:46:16;18.98;;;14.60;;
84482;SDS011;74703;51.284;22.590;2024-02-26T10:51:17;24.27;;;14.45;;
84482;SDS011;74703;51.284;22.590;2024-02-26T10:56:24;23.40;;;14.43;;
84482;SDS011;74703;51.284;22.590;2024-02-26T11:01:29;27.65;;;14.75;;
84482;SDS011;74703;51.284;22.590;2024-02-26T11:06:31;21.65;;;14.43;;
84482;SDS011;74703;51.284;22.590;2024-02-26T11:11:34;21.65;;;13.48;;
84482;SDS011;74703;51.284;22.590;2024-02-26T11:16:36;23.83;;;17.95;;
84482;SDS011;74703;51.284;22.590;2024-02-26T11:21:39;24.42;;;16.88;;
84482;SDS011;74703;51.284;22.590;2024-02-26T11:26:43;23.02;;;16.15;;
84482;SDS011;74703;51.284;22.590;2024-02-26T11:31:50;22.30;;;15.82;;
84482;SDS011;74703;51.284;22.590;2024-02-26T11:36:52;22.10;;;15.48;;
84482;SDS011;74703;51.284;22.590;2024-02-26T11:41:54;26.33;;;16.20;;
84482;SDS011;74703;51.284;22.590;2024-02-26T11:46:55;22.88;;;14.07;;
84482;SDS011;74703;51.284;22.590;2024-02-26T11:51:57;18.95;;;12.45;;
84482;SDS011;74703;51.284;22.590;2024-02-26T11:57:01;29.65;;;14.15;;
84482;SDS011;74703;51.284;22.590;2024-02-26T12:02:01;24.08;;;14.27;;
84482;SDS011;74703;51.284;22.590;2024-02-26T12:07:03;20.70;;;12.63;;
84482;SDS011;74703;51.284;22.590;2024-02-26T12:12:09;17.55;;;9.35;;
84482;SDS011;74703;51.284;22.590;2024-02-26T12:17:23;16.13;;;8.80;;
84482;SDS011;74703;51.284;22.590;2024-02-26T12:22:25;14.52;;;8.50;;
84482;SDS011;74703;51.284;22.590;2024-02-26T12:27:28;12.27;;;7.88;;
84482;SDS011;74703;51.284;22.590;2024-02-26T12:32:28;16.10;;;8.75;;
84482;SDS011;74703;51.284;22.590;2024-02-26T12:37:29;10.88;;;7.47;;
84482;SDS011;74703;51.284;22.590;2024-02-26T12:42:30;12.13;;;6.85;;
84482;SDS011;74703;51.284;22.590;2024-02-26T12:47:34;10.90;;;7.53;;
84482;SDS011;74703;51.284;22.590;2024-02-26T12:52:36;11.68;;;7.55;;
84482;SDS011;74703;51.284;22.590;2024-02-26T12:57:40;10.65;;;6.97;;
84482;SDS011;74703;51.284;22.590;2024-02-26T13:02:44;10.23;;;7.93;;
84482;SDS011;74703;51.284;22.590;2024-02-26T13:07:46;14.20;;;8.18;;
84482;SDS011;74703;51.284;22.590;2024-02-26T13:12:48;12.45;;;7.20;;
84482;SDS011;74703;51.284;22.590;2024-02-26T13:17:53;11.05;;;6.88;;
84482;SDS011;74703;51.284;22.590;2024-02-26T13:23:00;11.93;;;7.60;;
84482;SDS011;74703;51.284;22.590;2024-02-26T13:28:07;7.65;;;6.00;;
84482;SDS011;74703;51.284;22.590;2024-02-26T13:33:12;8.80;;;6.30;;
84482;SDS011;74703;51.284;22.590;2024-02-26T13:38:13;10.98;;;7.25;;
84482;SDS011;74703;51.284;22.590;2024-02-26T13:43:14;10.73;;;6.22;;
84482;SDS011;74703;51.284;22.590;2024-02-26T13:48:14;11.07;;;7.07;;
84482;SDS011;74703;51.284;22.590;2024-02-26T13:53:15;13.52;;;6.43;;
84482;SDS011;74703;51.284;22.590;2024-02-26T13:58:16;14.00;;;6.63;;
84482;SDS011;74703;51.284;22.590;2024-02-26T14:03:20;13.48;;;7.63;;
84482;SDS011;74703;51.284;22.590;2024-02-26T14:08:20;12.75;;;6.85;;
84482;SDS011;74703;51.284;22.590;2024-02-26T14:13:21;14.48;;;6.40;;
84482;SDS011;74703;51.284;22.590;2024-02-26T14:18:21;9.60;;;6.43;;
84482;SDS011;74703;51.284;22.590;2024-02-26T14:23:22;10.80;;;6.80;;
84482;SDS011;74703;51.284;22.590;2024-02-26T14:28:23;16.77;;;7.25;;
84482;SDS011;74703;51.284;22.590;2024-02-26T14:33:25;8.45;;;5.68;;
84482;SDS011;74703;51.284;22.590;2024-02-26T14:38:25;8.93;;;5.88;;
84482;SDS011;74703;51.284;22.590;2024-02-26T14:43:26;9.43;;;6.43;;
84482;SDS011;74703;51.284;22.590;2024-02-26T14:48:26;8.82;;;6.18;;
84482;SDS011;74703;51.284;22.590;2024-02-26T14:53:27;15.45;;;8.23;;
84482;SDS011;74703;51.284;22.590;2024-02-26T14:58:27;9.18;;;6.05;;
84482;SDS011;74703;51.284;22.590;2024-02-26T15:03:28;17.17;;;9.45;;
84482;SDS011;74703;51.284;22.590;2024-02-26T15:08:28;11.02;;;8.10;;
84482;SDS011;74703;51.284;22.590;2024-02-26T15:13:29;18.13;;;9.23;;
84482;SDS011;74703;51.284;22.590;2024-02-26T15:18:29;15.00;;;9.60;;
84482;SDS011;74703;51.284;22.590;2024-02-26T15:23:30;27.02;;;12.80;;
84482;SDS011;74703;51.284;22.590;2024-02-26T15:28:30;30.98;;;16.75;;
84482;SDS011;74703;51.284;22.590;2024-02-26T15:33:31;25.65;;;18.30;;
84482;SDS011;74703;51.284;22.590;2024-02-26T15:38:31;30.38;;;20.58;;
84482;SDS011;74703;51.284;22.590;2024-02-26T15:43:32;33.17;;;22.55;;
84482;SDS011;74703;51.284;22.590;2024-02-26T15:48:33;53.63;;;26.70;;
84482;SDS011;74703;51.284;22.590;2024-02-26T15:53:33;44.30;;;26.67;;
84482;SDS011;74703;51.284;22.590;2024-02-26T15:58:34;57.05;;;31.45;;
84482;SDS011;74703;51.284;22.590;2024-02-26T16:03:38;114.47;;;54.03;;
84482;SDS011;74703;51.284;22.590;2024-02-26T16:08:39;48.50;;;30.85;;
84482;SDS011;74703;51.284;22.590;2024-02-26T16:13:40;42.72;;;28.58;;
84482;SDS011;74703;51.284;22.590;2024-02-26T16:18:40;49.63;;;30.15;;
84482;SDS011;74703;51.284;22.590;2024-02-26T16:23:42;45.00;;;27.70;;
84482;SDS011;74703;51.284;22.590;2024-02-26T16:28:43;52.00;;;29.08;;
84482;SDS011;74703;51.284;22.590;2024-02-26T16:33:43;46.92;;;29.17;;
84482;SDS011;74703;51.284;22.590;2024-02-26T16:38:44;57.08;;;33.95;;
84482;SDS011;74703;51.284;22.590;2024-02-26T16:43:44;51.35;;;32.47;;
84482;SDS011;74703;51.284;22.590;2024-02-26T16:48:46;56.72;;;32.42;;
84482;SDS011;74703;51.284;22.590;2024-02-26T16:53:51;57.45;;;33.25;;
84482;SDS011;74703;51.284;22.590;2024-02-26T16:58:51;55.63;;;34.97;;
84482;SDS011;74703;51.284;22.590;2024-02-26T17:03:52;53.08;;;33.33;;
84482;SDS011;74703;51.284;22.590;2024-02-26T17:08:52;48.33;;;30.75;;
84482;SDS011;74703;51.284;22.590;2024-02-26T17:13:53;45.10;;;30.80;;
84482;SDS011;74703;51.284;22.590;2024-02-26T17:18:54;50.28;;;31.38;;
84482;SDS011;74703;51.284;22.590;2024-02-26T17:23:54;43.22;;;26.20;;
84482;SDS011;74703;51.284;22.590;2024-02-26T17:28:55;42.75;;;27.88;;
84482;SDS011;74703;51.284;22.590;2024-02-26T17:33:56;41.90;;;26.65;;
84482;SDS011;74703;51.284;22.590;2024-02-26T17:38:58;41.72;;;29.08;;
84482;SDS011;74703;51.284;22.590;2024-02-26T17:43:58;46.75;;;29.27;;
84482;SDS011;74703;51.284;22.590;2024-02-26T17:48:59;55.20;;;31.20;;
84482;SDS011;74703;51.284;22.590;2024-02-26T17:54:00;47.97;;;30.33;;
84482;SDS011;74703;51.284;22.590;2024-02-26T17:59:00;54.53;;;34.60;;
84482;SDS011;74703;51.284;22.590;2024-02-26T18:04:01;56.67;;;35.70;;
84482;SDS011;74703;51.284;22.590;2024-02-26T18:09:01;63.55;;;36.17;;
84482;SDS011;74703;51.284;22.590;2024-02-26T18:14:02;47.13;;;31.58;;
84482;SDS011;74703;51.284;22.590;2024-02-26T18:19:03;44.10;;;27.50;;
84482;SDS011;74703;51.284;22.590;2024-02-26T18:24:06;42.08;;;25.13;;
84482;SDS011;74703;51.284;22.590;2024-02-26T18:29:07;43.72;;;23.48;;
84482;SDS011;74703;51.284;22.590;2024-02-26T18:34:07;38.00;;;22.30;;
84482;SDS011;74703;51.284;22.590;2024-02-26T18:39:09;33.63;;;20.73;;
84482;SDS011;74703;51.284;22.590;2024-02-26T18:44:11;34.13;;;20.25;;
84482;SDS011;74703;51.284;22.590;2024-02-26T18:49:12;32.85;;;20.42;;
84482;SDS011;74703;51.284;22.590;2024-02-26T18:54:13;37.65;;;21.00;;
84482;SDS011;74703;51.284;22.590;2024-02-26T18:59:13;37.15;;;22.65;;
84482;SDS011;74703;51.284;22.590;2024-02-26T19:04:16;44.88;;;25.25;;
84482;SDS011;74703;51.284;22.590;2024-02-26T19:09:16;44.60;;;21.23;;
84482;SDS011;74703;51.284;22.590;2024-02-26T19:14:17;31.60;;;20.30;;
84482;SDS011;74703;51.284;22.590;2024-02-26T19:19:18;32.95;;;20.20;;
84482;SDS011;74703;51.284;22.590;2024-02-26T19:24:19;31.75;;;19.50;;
84482;SDS011;74703;51.284;22.590;2024-02-26T19:29:22;47.90;;;23.30;;
84482;SDS011;74703;51.284;22.590;2024-02-26T19:34:22;31.83;;;19.45;;
84482;SDS011;74703;51.284;22.590;2024-02-26T19:39:24;35.80;;;19.15;;
84482;SDS011;74703;51.284;22.590;2024-02-26T19:44:25;38.03;;;21.40;;
84482;SDS011;74703;51.284;22.590;2024-02-26T19:49:26;35.80;;;23.55;;
84482;SDS011;74703;51.284;22.590;2024-02-26T19:54:27;35.60;;;21.27;;
84482;SDS011;74703;51.284;22.590;2024-02-26T19:59:28;40.42;;;23.35;;
84482;SDS011;74703;51.284;22.590;2024-02-26T20:04:28;43.40;;;27.05;;
84482;SDS011;74703;51.284;22.590;2024-02-26T20:09:30;35.55;;;22.42;;
84482;SDS011;74703;51.284;22.590;2024-02-26T20:14:31;34.70;;;21.35;;
84482;SDS011;74703;51.284;22.590;2024-02-26T20:19:32;34.65;;;19.40;;
84482;SDS011;74703;51.284;22.590;2024-02-26T20:24:33;39.15;;;24.95;;
84482;SDS011;74703;51.284;22.590;2024-02-26T20:29:34;44.58;;;26.23;;
84482;SDS011;74703;51.284;22.590;2024-02-26T20:34:34;39.53;;;23.45;;
84482;SDS011;74703;51.284;22.590;2024-02-26T20:39:35;36.40;;;19.90;;
84482;SDS011;74703;51.284;22.590;2024-02-26T20:44:36;36.78;;;21.75;;
84482;SDS011;74703;51.284;22.590;2024-02-26T20:49:37;30.10;;;17.95;;
84482;SDS011;74703;51.284;22.590;2024-02-26T20:54:38;27.10;;;16.77;;
84482;SDS011;74703;51.284;22.590;2024-02-26T20:59:39;24.83;;;16.13;;
84482;SDS011;74703;51.284;22.590;2024-02-26T21:04:43;25.52;;;15.20;;
84482;SDS011;74703;51.284;22.590;2024-02-26T21:09:43;27.95;;;15.57;;
84482;SDS011;74703;51.284;22.590;2024-02-26T21:14:44;27.73;;;15.40;;
84482;SDS011;74703;51.284;22.590;2024-02-26T21:19:44;26.77;;;16.17;;
84482;SDS011;74703;51.284;22.590;2024-02-26T21:24:45;30.17;;;16.83;;
84482;SDS011;74703;51.284;22.590;2024-02-26T21:29:45;34.92;;;19.30;;
84482;SDS011;74703;51.284;22.590;2024-02-26T21:34:46;34.25;;;20.05;;
84482;SDS011;74703;51.284;22.590;2024-02-26T21:39:46;32.65;;;18.85;;
84482;SDS011;74703;51.284;22.590;2024-02-26T21:44:47;30.38;;;19.00;;
84482;SDS011;74703;51.284;22.590;2024-02-26T21:49:48;27.52;;;17.65;;
84482;SDS011;74703;51.284;22.590;2024-02-26T21:54:48;27.25;;;17.30;;
84482;SDS011;74703;51.284;22.590;2024-02-26T21:59:50;27.98;;;18.35;;
84482;SDS011;74703;51.284;22.590;2024-02-26T22:04:51;29.17;;;16.90;;
84482;SDS011;74703;51.284;22.590;2024-02-26T22:09:53;29.38;;;18.00;;
84482;SDS011;74703;51.284;22.590;2024-02-26T22:14:54;31.83;;;17.13;;
84482;SDS011;74703;51.284;22.590;2024-02-26T22:19:54;27.67;;;17.95;;
84482;SDS011;74703;51.284;22.590;2024-02-26T22:24:55;33.33;;;18.90;;
84482;SDS011;74703;51.284;22.590;2024-02-26T22:29:55;34.97;;;18.98;;
84482;SDS011;74703;51.284;22.590;2024-02-26T22:34:56;29.45;;;18.77;;
84482;SDS011;74703;51.284;22.590;2024-02-26T22:39:56;31.63;;;19.35;;
84482;SDS011;74703;51.284;22.590;2024-02-26T22:44:57;31.88;;;18.88;;
84482;SDS011;74703;51.284;22.590;2024-02-26T22:49:58;32.70;;;19.90;;
84482;SDS011;74703;51.284;22.590;2024-02-26T22:54:59;34.38;;;19.17;;
84482;SDS011;74703;51.284;22.590;2024-02-26T22:59:59;35.60;;;19.90;;
84482;SDS011;74703;51.284;22.590;2024-02-26T23:05:23;31.65;;;17.98;;
84482;SDS011;74703;51.284;22.590;2024-02-26T23:10:25;32.30;;;21.02;;
84482;SDS011;74703;51.284;22.590;2024-02-26T23:15:26;32.28;;;20.05;;
84482;SDS011;74703;51.284;22.590;2024-02-26T23:20:28;31.77;;;17.67;;
84482;SDS011;74703;51.284;22.590;2024-02-26T23:25:29;32.35;;;19.50;;
84482;SDS011;74703;51.284;22.590;2024-02-26T23:30:29;38.53;;;19.38;;
84482;SDS011;74703;51.284;22.590;2024-02-26T23:35:30;37.70;;;20.38;;
84482;SDS011;74703;51.284;22.590;2024-02-26T23:40:31;32.67;;;18.98;;
84482;SDS011;74703;51.284;22.590;2024-02-26T23:45:33;34.70;;;18.67;;
84482;SDS011;74703;51.284;22.590;2024-02-26T23:50:34;35.90;;;20.58;;
84482;SDS011;74703;51.284;22.590;2024-02-26T23:55:34;27.58;;;18.48;;
